sensor_id;sensor_type;location;lat;lon;timestamp;temperature;humidity
37300;DHT22;23184;51.902;12.836;2024-03-22T00:01:46;6.20;99.90
37300;DHT22;23184;51.902;12.836;2024-03-22T00:04:12;6.20;99.90
37300;DHT22;23184;51.902;12.836;2024-03-22T00:06:40;6.20;99.90
37300;DHT22;23184;51.902;12.836;2024-03-22T00:09:06;6.20;99.90
37300;DHT22;23184;51.902;12.836;2024-03-22T00:11:32;6.20;99.90
37300;DHT22;23184;51.902;12.836;2024-03-22T00:13:58;6.10;99.90
37300;DHT22;23184;51.902;12.836;2024-03-22T00:16:23;6.10;99.90
37300;DHT22;23184;51.902;12.836;2024-03-22T00:18:49;6.10;99.90
37300;DHT22;23184;51.902;12.836;2024-03-22T00:21:14;6.10;99.90
37300;DHT22;23184;51.902;12.836;2024-03-22T00:23:40;6.20;99.90
37300;DHT22;23184;51.902;12.836;2024-03-22T00:26:07;6.10;99.90
37300;DHT22;23184;51.902;12.836;2024-03-22T00:28:32;6.10;99.90
37300;DHT22;23184;51.902;12.836;2024-03-22T00:30:58;6.10;99.90
37300;DHT22;23184;51.902;12.836;2024-03-22T00:33:24;6.00;99.90
37300;DHT22;23184;51.902;12.836;2024-03-22T00:35:49;6.00;99.90
37300;DHT22;23184;51.902;12.836;2024-03-22T00:38:15;5.90;99.90
37300;DHT22;23184;51.902;12.836;2024-03-22T00:40:40;5.80;99.90
37300;DHT22;23184;51.902;12.836;2024-03-22T00:43:06;5.90;99.90
37300;DHT22;23184;51.902;12.836;2024-03-22T00:45:32;5.90;99.90
37300;DHT22;23184;51.902;12.836;2024-03-22T00:47:57;6.00;99.90
37300;DHT22;23184;51.902;12.836;2024-03-22T00:50:22;6.00;99.90
37300;DHT22;23184;51.902;12.836;2024-03-22T00:52:50;5.90;99.90
37300;DHT22;23184;51.902;12.836;2024-03-22T00:55:16;5.80;99.90
37300;DHT22;23184;51.902;12.836;2024-03-22T00:57:41;5.80;99.90
37300;DHT22;23184;51.902;12.836;2024-03-22T01:00:07;5.80;99.90
37300;DHT22;23184;51.902;12.836;2024-03-22T01:02:33;5.80;99.90
37300;DHT22;23184;51.902;12.836;2024-03-22T01:04:58;5.90;99.90
37300;DHT22;23184;51.902;12.836;2024-03-22T01:07:24;6.00;99.90
37300;DHT22;23184;51.902;12.836;2024-03-22T01:09:49;6.00;99.90
37300;DHT22;23184;51.902;12.836;2024-03-22T01:12:15;6.00;99.90
37300;DHT22;23184;51.902;12.836;2024-03-22T01:14:40;6.00;99.90
37300;DHT22;23184;51.902;12.836;2024-03-22T01:17:05;6.00;99.90
37300;DHT22;23184;51.902;12.836;2024-03-22T01:19:32;6.10;99.90
37300;DHT22;23184;51.902;12.836;2024-03-22T01:21:57;6.10;99.90
37300;DHT22;23184;51.902;12.836;2024-03-22T01:24:23;6.00;99.90
37300;DHT22;23184;51.902;12.836;2024-03-22T01:26:48;6.00;99.90
37300;DHT22;23184;51.902;12.836;2024-03-22T01:29:14;5.80;99.90
37300;DHT22;23184;51.902;12.836;2024-03-22T01:31:39;5.80;99.90
37300;DHT22;23184;51.902;12.836;2024-03-22T01:34:05;5.80;99.90
37300;DHT22;23184;51.902;12.836;2024-03-22T01:36:31;5.80;99.90
37300;DHT22;23184;51.902;12.836;2024-03-22T01:38:56;5.80;99.90
37300;DHT22;23184;51.902;12.836;2024-03-22T01:41:22;5.80;99.90
37300;DHT22;23184;51.902;12.836;2024-03-22T01:43:47;5.80;99.90
37300;DHT22;23184;51.902;12.836;2024-03-22T01:46:13;5.80;99.90
37300;DHT22;23184;51.902;12.836;2024-03-22T01:48:39;5.90;99.90
37300;DHT22;23184;51.902;12.836;2024-03-22T01:51:05;5.90;99.90
37300;DHT22;23184;51.902;12.836;2024-03-22T01:53:31;6.00;99.90
37300;DHT22;23184;51.902;12.836;2024-03-22T01:55:58;6.00;99.90
37300;DHT22;23184;51.902;12.836;2024-03-22T01:58:23;6.00;99.90
37300;DHT22;23184;51.902;12.836;2024-03-22T02:00:49;6.00;99.90
37300;DHT22;23184;51.902;12.836;2024-03-22T02:03:15;5.90;99.90
37300;DHT22;23184;51.902;12.836;2024-03-22T02:05:40;5.90;99.90
37300;DHT22;23184;51.902;12.836;2024-03-22T02:08:06;5.80;99.90
37300;DHT22;23184;51.902;12.836;2024-03-22T02:10:32;5.90;99.90
37300;DHT22;23184;51.902;12.836;2024-03-22T02:12:57;5.90;99.90
37300;DHT22;23184;51.902;12.836;2024-03-22T02:15:23;6.00;99.90
37300;DHT22;23184;51.902;12.836;2024-03-22T02:17:49;6.00;99.90
37300;DHT22;23184;51.902;12.836;2024-03-22T02:20:14;6.00;99.90
37300;DHT22;23184;51.902;12.836;2024-03-22T02:22:40;6.10;99.90
37300;DHT22;23184;51.902;12.836;2024-03-22T02:25:05;6.10;99.90
37300;DHT22;23184;51.902;12.836;2024-03-22T02:27:32;6.10;99.90
37300;DHT22;23184;51.902;12.836;2024-03-22T02:29:58;6.20;99.90
37300;DHT22;23184;51.902;12.836;2024-03-22T02:35:37;6.20;99.90
37300;DHT22;23184;51.902;12.836;2024-03-22T02:38:02;6.20;99.90
37300;DHT22;23184;51.902;12.836;2024-03-22T02:40:28;6.20;99.90
37300;DHT22;23184;51.902;12.836;2024-03-22T02:42:53;6.30;99.90
37300;DHT22;23184;51.902;12.836;2024-03-22T02:45:19;6.20;99.90
37300;DHT22;23184;51.902;12.836;2024-03-22T02:47:44;6.20;99.90
37300;DHT22;23184;51.902;12.836;2024-03-22T02:50:10;6.30;99.90
37300;DHT22;23184;51.902;12.836;2024-03-22T02:52:35;6.30;99.90
37300;DHT22;23184;51.902;12.836;2024-03-22T02:55:01;6.30;99.90
37300;DHT22;23184;51.902;12.836;2024-03-22T02:57:26;6.30;99.90
37300;DHT22;23184;51.902;12.836;2024-03-22T02:59:52;6.30;99.90
37300;DHT22;23184;51.902;12.836;2024-03-22T03:02:17;6.40;99.90
37300;DHT22;23184;51.902;12.836;2024-03-22T03:04:42;6.40;99.90
37300;DHT22;23184;51.902;12.836;2024-03-22T03:07:08;6.40;99.90
37300;DHT22;23184;51.902;12.836;2024-03-22T03:09:34;6.40;99.90
37300;DHT22;23184;51.902;12.836;2024-03-22T03:11:59;6.40;99.90
37300;DHT22;23184;51.902;12.836;2024-03-22T03:14:24;6.30;99.90
37300;DHT22;23184;51.902;12.836;2024-03-22T03:16:50;6.20;99.90
37300;DHT22;23184;51.902;12.836;2024-03-22T03:19:15;6.20;99.90
37300;DHT22;23184;51.902;12.836;2024-03-22T03:21:41;6.10;99.90
37300;DHT22;23184;51.902;12.836;2024-03-22T03:24:06;6.20;99.90
37300;DHT22;23184;51.902;12.836;2024-03-22T03:26:34;6.10;99.90
37300;DHT22;23184;51.902;12.836;2024-03-22T03:29:00;6.10;99.90
37300;DHT22;23184;51.902;12.836;2024-03-22T03:31:25;6.20;99.90
37300;DHT22;23184;51.902;12.836;2024-03-22T03:33:51;6.20;99.90
37300;DHT22;23184;51.902;12.836;2024-03-22T03:36:16;6.20;99.90
37300;DHT22;23184;51.902;12.836;2024-03-22T03:38:42;6.30;99.90
37300;DHT22;23184;51.902;12.836;2024-03-22T03:41:07;6.30;99.90
37300;DHT22;23184;51.902;12.836;2024-03-22T03:43:33;6.30;99.90
37300;DHT22;23184;51.902;12.836;2024-03-22T03:45:58;6.30;99.90
37300;DHT22;23184;51.902;12.836;2024-03-22T03:48:24;6.40;99.90
37300;DHT22;23184;51.902;12.836;2024-03-22T03:50:56;6.30;99.90
37300;DHT22;23184;51.902;12.836;2024-03-22T03:53:24;6.40;99.90
37300;DHT22;23184;51.902;12.836;2024-03-22T03:55:50;6.40;99.90
37300;DHT22;23184;51.902;12.836;2024-03-22T03:58:15;6.40;99.90
37300;DHT22;23184;51.902;12.836;2024-03-22T04:00:43;6.40;99.90
37300;DHT22;23184;51.902;12.836;2024-03-22T04:03:08;6.40;99.90
37300;DHT22;23184;51.902;12.836;2024-03-22T04:05:34;6.40;99.90
37300;DHT22;23184;51.902;12.836;2024-03-22T04:07:59;6.40;99.90
37300;DHT22;23184;51.902;12.836;2024-03-22T04:10:25;6.40;99.90
37300;DHT22;23184;51.902;12.836;2024-03-22T04:12:50;6.30;99.90
37300;DHT22;23184;51.902;12.836;2024-03-22T04:15:16;6.40;99.90
37300;DHT22;23184;51.902;12.836;2024-03-22T04:17:41;6.40;99.90
37300;DHT22;23184;51.902;12.836;2024-03-22T04:20:07;6.40;99.90
37300;DHT22;23184;51.902;12.836;2024-03-22T04:22:34;6.50;99.90
37300;DHT22;23184;51.902;12.836;2024-03-22T04:24:59;6.40;99.90
37300;DHT22;23184;51.902;12.836;2024-03-22T04:27:25;6.50;99.90
37300;DHT22;23184;51.902;12.836;2024-03-22T04:29:50;6.50;99.90
37300;DHT22;23184;51.902;12.836;2024-03-22T04:32:16;6.50;99.90
37300;DHT22;23184;51.902;12.836;2024-03-22T04:34:42;6.50;99.90
37300;DHT22;23184;51.902;12.836;2024-03-22T04:37:08;6.50;99.90
37300;DHT22;23184;51.902;12.836;2024-03-22T04:39:34;6.60;99.90
37300;DHT22;23184;51.902;12.836;2024-03-22T04:42:00;6.60;99.90
37300;DHT22;23184;51.902;12.836;2024-03-22T04:44:25;6.60;99.90
37300;DHT22;23184;51.902;12.836;2024-03-22T04:46:51;6.60;99.90
37300;DHT22;23184;51.902;12.836;2024-03-22T04:49:16;6.60;99.90
37300;DHT22;23184;51.902;12.836;2024-03-22T04:51:42;6.60;99.90
37300;DHT22;23184;51.902;12.836;2024-03-22T04:54:07;6.70;99.90
37300;DHT22;23184;51.902;12.836;2024-03-22T04:56:33;6.70;99.90
37300;DHT22;23184;51.902;12.836;2024-03-22T04:58:58;6.80;99.90
37300;DHT22;23184;51.902;12.836;2024-03-22T05:01:24;6.80;99.90
37300;DHT22;23184;51.902;12.836;2024-03-22T05:03:49;6.90;99.90
37300;DHT22;23184;51.902;12.836;2024-03-22T05:06:15;6.90;99.90
37300;DHT22;23184;51.902;12.836;2024-03-22T05:08:40;6.90;99.90
37300;DHT22;23184;51.902;12.836;2024-03-22T05:11:07;6.80;99.90
37300;DHT22;23184;51.902;12.836;2024-03-22T05:13:33;6.90;99.90
37300;DHT22;23184;51.902;12.836;2024-03-22T05:15:58;6.80;99.90
37300;DHT22;23184;51.902;12.836;2024-03-22T05:18:24;6.90;99.90
37300;DHT22;23184;51.902;12.836;2024-03-22T05:20:49;6.90;99.90
37300;DHT22;23184;51.902;12.836;2024-03-22T05:23:15;6.90;99.90
37300;DHT22;23184;51.902;12.836;2024-03-22T05:25:42;6.90;99.90
37300;DHT22;23184;51.902;12.836;2024-03-22T05:28:08;6.90;99.90
37300;DHT22;23184;51.902;12.836;2024-03-22T05:30:33;6.80;99.90
37300;DHT22;23184;51.902;12.836;2024-03-22T05:32:59;6.70;99.90
37300;DHT22;23184;51.902;12.836;2024-03-22T05:35:24;6.70;99.90
37300;DHT22;23184;51.902;12.836;2024-03-22T05:37:50;6.70;99.90
37300;DHT22;23184;51.902;12.836;2024-03-22T05:40:16;6.70;99.90
37300;DHT22;23184;51.902;12.836;2024-03-22T05:42:42;6.70;99.90
37300;DHT22;23184;51.902;12.836;2024-03-22T05:45:08;6.70;99.90
37300;DHT22;23184;51.902;12.836;2024-03-22T05:47:34;6.70;99.90
37300;DHT22;23184;51.902;12.836;2024-03-22T05:50:00;6.70;99.90
37300;DHT22;23184;51.902;12.836;2024-03-22T05:52:26;6.80;99.90
37300;DHT22;23184;51.902;12.836;2024-03-22T05:54:52;6.80;99.90
37300;DHT22;23184;51.902;12.836;2024-03-22T05:57:17;6.80;99.90
37300;DHT22;23184;51.902;12.836;2024-03-22T05:59:43;6.90;99.90
37300;DHT22;23184;51.902;12.836;2024-03-22T06:02:08;6.90;99.90
37300;DHT22;23184;51.902;12.836;2024-03-22T06:04:34;7.00;99.90
37300;DHT22;23184;51.902;12.836;2024-03-22T06:07:00;7.10;99.90
37300;DHT22;23184;51.902;12.836;2024-03-22T06:09:26;7.10;99.90
37300;DHT22;23184;51.902;12.836;2024-03-22T06:12:12;7.10;99.90
37300;DHT22;23184;51.902;12.836;2024-03-22T06:14:38;7.20;99.90
37300;DHT22;23184;51.902;12.836;2024-03-22T06:17:04;7.20;99.90
37300;DHT22;23184;51.902;12.836;2024-03-22T06:19:30;7.30;99.90
37300;DHT22;23184;51.902;12.836;2024-03-22T06:21:55;7.30;99.90
37300;DHT22;23184;51.902;12.836;2024-03-22T06:24:21;7.30;99.90
37300;DHT22;23184;51.902;12.836;2024-03-22T06:26:46;7.40;99.90
37300;DHT22;23184;51.902;12.836;2024-03-22T06:29:12;7.50;99.90
37300;DHT22;23184;51.902;12.836;2024-03-22T06:31:38;7.50;99.90
37300;DHT22;23184;51.902;12.836;2024-03-22T06:34:04;7.60;99.90
37300;DHT22;23184;51.902;12.836;2024-03-22T06:36:31;7.70;99.90
37300;DHT22;23184;51.902;12.836;2024-03-22T06:38:58;7.70;99.90
37300;DHT22;23184;51.902;12.836;2024-03-22T06:41:24;7.80;99.90
37300;DHT22;23184;51.902;12.836;2024-03-22T06:43:51;7.90;99.90
37300;DHT22;23184;51.902;12.836;2024-03-22T06:46:16;7.90;99.90
37300;DHT22;23184;51.902;12.836;2024-03-22T06:48:42;8.00;99.90
37300;DHT22;23184;51.902;12.836;2024-03-22T06:51:08;8.00;99.90
37300;DHT22;23184;51.902;12.836;2024-03-22T06:53:33;8.10;99.90
37300;DHT22;23184;51.902;12.836;2024-03-22T06:55:59;8.10;99.90
37300;DHT22;23184;51.902;12.836;2024-03-22T06:58:24;8.20;99.90
37300;DHT22;23184;51.902;12.836;2024-03-22T07:00:50;8.30;99.90
37300;DHT22;23184;51.902;12.836;2024-03-22T07:03:16;8.30;99.90
37300;DHT22;23184;51.902;12.836;2024-03-22T07:05:42;8.40;99.90
37300;DHT22;23184;51.902;12.836;2024-03-22T07:08:08;8.40;99.90
37300;DHT22;23184;51.902;12.836;2024-03-22T07:10:34;8.40;99.90
37300;DHT22;23184;51.902;12.836;2024-03-22T07:12:59;8.50;99.90
37300;DHT22;23184;51.902;12.836;2024-03-22T07:15:25;8.50;99.90
37300;DHT22;23184;51.902;12.836;2024-03-22T07:17:51;8.50;99.90
37300;DHT22;23184;51.902;12.836;2024-03-22T07:20:17;8.50;99.90
37300;DHT22;23184;51.902;12.836;2024-03-22T07:22:43;8.60;99.90
37300;DHT22;23184;51.902;12.836;2024-03-22T07:25:08;8.50;99.90
37300;DHT22;23184;51.902;12.836;2024-03-22T07:27:37;8.60;99.90
37300;DHT22;23184;51.902;12.836;2024-03-22T07:30:03;8.60;99.90
37300;DHT22;23184;51.902;12.836;2024-03-22T07:32:29;8.70;99.90
37300;DHT22;23184;51.902;12.836;2024-03-22T07:34:55;8.70;99.90
37300;DHT22;23184;51.902;12.836;2024-03-22T07:37:20;8.80;99.90
37300;DHT22;23184;51.902;12.836;2024-03-22T07:39:46;8.90;99.90
37300;DHT22;23184;51.902;12.836;2024-03-22T07:42:11;8.90;99.90
37300;DHT22;23184;51.902;12.836;2024-03-22T07:44:37;9.00;99.90
37300;DHT22;23184;51.902;12.836;2024-03-22T07:47:02;9.10;99.90
37300;DHT22;23184;51.902;12.836;2024-03-22T07:49:28;9.20;99.90
37300;DHT22;23184;51.902;12.836;2024-03-22T07:51:53;9.40;99.90
37300;DHT22;23184;51.902;12.836;2024-03-22T07:54:19;9.40;99.90
37300;DHT22;23184;51.902;12.836;2024-03-22T07:56:46;9.60;99.90
37300;DHT22;23184;51.902;12.836;2024-03-22T07:59:11;9.80;99.90
37300;DHT22;23184;51.902;12.836;2024-03-22T08:01:36;9.60;99.90
37300;DHT22;23184;51.902;12.836;2024-03-22T08:04:02;9.60;99.90
37300;DHT22;23184;51.902;12.836;2024-03-22T08:06:28;9.70;99.90
37300;DHT22;23184;51.902;12.836;2024-03-22T08:08:53;9.60;99.90
37300;DHT22;23184;51.902;12.836;2024-03-22T08:11:18;9.60;99.90
37300;DHT22;23184;51.902;12.836;2024-03-22T08:13:44;9.50;99.90
37300;DHT22;23184;51.902;12.836;2024-03-22T08:16:09;9.50;99.90
37300;DHT22;23184;51.902;12.836;2024-03-22T08:18:35;9.50;99.90
37300;DHT22;23184;51.902;12.836;2024-03-22T08:21:01;9.60;99.90
37300;DHT22;23184;51.902;12.836;2024-03-22T08:23:27;9.60;99.90
37300;DHT22;23184;51.902;12.836;2024-03-22T08:25:53;9.70;99.90
37300;DHT22;23184;51.902;12.836;2024-03-22T08:28:18;9.70;99.90
37300;DHT22;23184;51.902;12.836;2024-03-22T08:30:44;9.60;99.90
37300;DHT22;23184;51.902;12.836;2024-03-22T08:33:10;9.70;99.90
37300;DHT22;23184;51.902;12.836;2024-03-22T08:35:36;9.70;99.90
37300;DHT22;23184;51.902;12.836;2024-03-22T08:38:02;9.70;99.90
37300;DHT22;23184;51.902;12.836;2024-03-22T08:40:28;9.70;99.90
37300;DHT22;23184;51.902;12.836;2024-03-22T08:42:54;9.70;99.90
37300;DHT22;23184;51.902;12.836;2024-03-22T08:45:19;9.70;99.90
37300;DHT22;23184;51.902;12.836;2024-03-22T08:47:45;9.80;99.90
37300;DHT22;23184;51.902;12.836;2024-03-22T08:50:13;9.80;99.90
37300;DHT22;23184;51.902;12.836;2024-03-22T08:52:39;9.90;99.90
37300;DHT22;23184;51.902;12.836;2024-03-22T08:55:05;9.90;99.90
37300;DHT22;23184;51.902;12.836;2024-03-22T08:57:34;10.00;99.90
37300;DHT22;23184;51.902;12.836;2024-03-22T08:59:59;10.00;99.90
37300;DHT22;23184;51.902;12.836;2024-03-22T09:02:24;10.10;99.90
37300;DHT22;23184;51.902;12.836;2024-03-22T09:04:50;10.10;99.90
37300;DHT22;23184;51.902;12.836;2024-03-22T09:07:16;10.30;99.90
37300;DHT22;23184;51.902;12.836;2024-03-22T09:09:42;10.20;99.90
37300;DHT22;23184;51.902;12.836;2024-03-22T09:12:07;10.20;99.90
37300;DHT22;23184;51.902;12.836;2024-03-22T09:14:33;10.20;99.90
37300;DHT22;23184;51.902;12.836;2024-03-22T09:16:58;10.30;99.90
37300;DHT22;23184;51.902;12.836;2024-03-22T09:19:24;10.20;99.90
37300;DHT22;23184;51.902;12.836;2024-03-22T09:21:49;10.30;99.90
37300;DHT22;23184;51.902;12.836;2024-03-22T09:24:15;10.30;99.90
37300;DHT22;23184;51.902;12.836;2024-03-22T09:26:40;10.30;99.90
37300;DHT22;23184;51.902;12.836;2024-03-22T09:29:06;10.30;99.90
37300;DHT22;23184;51.902;12.836;2024-03-22T09:31:31;10.40;99.90
37300;DHT22;23184;51.902;12.836;2024-03-22T09:33:58;10.40;99.90
37300;DHT22;23184;51.902;12.836;2024-03-22T09:36:24;10.50;99.90
37300;DHT22;23184;51.902;12.836;2024-03-22T09:38:50;10.50;99.90
37300;DHT22;23184;51.902;12.836;2024-03-22T09:41:16;10.60;99.90
37300;DHT22;23184;51.902;12.836;2024-03-22T09:43:46;10.70;99.90
37300;DHT22;23184;51.902;12.836;2024-03-22T09:46:13;10.70;99.90
37300;DHT22;23184;51.902;12.836;2024-03-22T09:48:41;10.80;99.90
37300;DHT22;23184;51.902;12.836;2024-03-22T09:51:08;10.80;99.90
37300;DHT22;23184;51.902;12.836;2024-03-22T09:53:33;10.80;99.90
37300;DHT22;23184;51.902;12.836;2024-03-22T09:56:00;11.00;99.90
37300;DHT22;23184;51.902;12.836;2024-03-22T09:58:27;11.00;99.90
37300;DHT22;23184;51.902;12.836;2024-03-22T10:00:52;11.10;99.90
37300;DHT22;23184;51.902;12.836;2024-03-22T10:03:18;11.20;99.90
37300;DHT22;23184;51.902;12.836;2024-03-22T10:05:44;11.30;99.90
37300;DHT22;23184;51.902;12.836;2024-03-22T10:08:09;11.40;99.90
37300;DHT22;23184;51.902;12.836;2024-03-22T10:10:35;11.40;99.90
37300;DHT22;23184;51.902;12.836;2024-03-22T10:13:02;11.60;99.90
37300;DHT22;23184;51.902;12.836;2024-03-22T10:15:28;11.60;99.90
37300;DHT22;23184;51.902;12.836;2024-03-22T10:17:57;11.70;99.90
37300;DHT22;23184;51.902;12.836;2024-03-22T10:20:22;11.90;99.90
37300;DHT22;23184;51.902;12.836;2024-03-22T10:23:00;12.10;99.90
37300;DHT22;23184;51.902;12.836;2024-03-22T10:25:26;12.20;99.90
37300;DHT22;23184;51.902;12.836;2024-03-22T10:27:56;12.30;99.90
37300;DHT22;23184;51.902;12.836;2024-03-22T10:30:22;12.30;99.90
37300;DHT22;23184;51.902;12.836;2024-03-22T10:32:51;12.40;99.90
37300;DHT22;23184;51.902;12.836;2024-03-22T10:35:17;12.50;99.90
37300;DHT22;23184;51.902;12.836;2024-03-22T10:37:44;12.40;99.90
37300;DHT22;23184;51.902;12.836;2024-03-22T10:40:10;12.40;99.90
37300;DHT22;23184;51.902;12.836;2024-03-22T10:42:38;12.40;99.90
37300;DHT22;23184;51.902;12.836;2024-03-22T10:45:05;12.40;99.90
37300;DHT22;23184;51.902;12.836;2024-03-22T10:47:32;12.70;99.90
37300;DHT22;23184;51.902;12.836;2024-03-22T10:50:07;12.90;99.90
37300;DHT22;23184;51.902;12.836;2024-03-22T10:52:47;12.90;99.90
37300;DHT22;23184;51.902;12.836;2024-03-22T10:55:24;12.80;99.90
37300;DHT22;23184;51.902;12.836;2024-03-22T10:57:53;12.80;99.90
37300;DHT22;23184;51.902;12.836;2024-03-22T11:00:31;12.90;99.90
37300;DHT22;23184;51.902;12.836;2024-03-22T11:02:56;12.80;99.90
37300;DHT22;23184;51.902;12.836;2024-03-22T11:05:22;12.80;99.90
37300;DHT22;23184;51.902;12.836;2024-03-22T11:07:59;12.90;99.90
37300;DHT22;23184;51.902;12.836;2024-03-22T11:10:29;12.90;99.90
37300;DHT22;23184;51.902;12.836;2024-03-22T11:13:01;12.90;99.90
37300;DHT22;23184;51.902;12.836;2024-03-22T11:15:29;12.90;99.90
37300;DHT22;23184;51.902;12.836;2024-03-22T11:17:55;12.90;99.90
37300;DHT22;23184;51.902;12.836;2024-03-22T11:20:20;13.00;99.90
37300;DHT22;23184;51.902;12.836;2024-03-22T11:22:46;13.10;99.90
37300;DHT22;23184;51.902;12.836;2024-03-22T11:25:12;13.10;99.90
37300;DHT22;23184;51.902;12.836;2024-03-22T11:27:37;13.10;99.90
37300;DHT22;23184;51.902;12.836;2024-03-22T11:30:03;13.20;99.90
37300;DHT22;23184;51.902;12.836;2024-03-22T11:32:29;13.30;99.90
37300;DHT22;23184;51.902;12.836;2024-03-22T11:34:55;13.40;99.90
37300;DHT22;23184;51.902;12.836;2024-03-22T11:37:21;13.40;99.90
37300;DHT22;23184;51.902;12.836;2024-03-22T11:39:47;13.40;99.90
37300;DHT22;23184;51.902;12.836;2024-03-22T11:42:13;13.40;99.90
37300;DHT22;23184;51.902;12.836;2024-03-22T11:44:40;13.40;99.90
37300;DHT22;23184;51.902;12.836;2024-03-22T11:47:06;13.30;99.90
37300;DHT22;23184;51.902;12.836;2024-03-22T11:49:32;13.30;99.90
37300;DHT22;23184;51.902;12.836;2024-03-22T11:51:57;13.30;99.90
37300;DHT22;23184;51.902;12.836;2024-03-22T11:54:23;13.20;99.90
37300;DHT22;23184;51.902;12.836;2024-03-22T11:56:49;13.10;99.90
37300;DHT22;23184;51.902;12.836;2024-03-22T11:59:18;13.20;99.90
37300;DHT22;23184;51.902;12.836;2024-03-22T12:01:44;13.20;99.90
37300;DHT22;23184;51.902;12.836;2024-03-22T12:04:10;13.20;99.90
37300;DHT22;23184;51.902;12.836;2024-03-22T12:06:42;13.30;99.90
37300;DHT22;23184;51.902;12.836;2024-03-22T12:09:07;13.30;99.90
37300;DHT22;23184;51.902;12.836;2024-03-22T12:11:33;13.30;99.90
37300;DHT22;23184;51.902;12.836;2024-03-22T12:13:59;13.40;99.90
37300;DHT22;23184;51.902;12.836;2024-03-22T12:16:24;13.40;99.90
37300;DHT22;23184;51.902;12.836;2024-03-22T12:18:50;13.40;99.90
37300;DHT22;23184;51.902;12.836;2024-03-22T12:21:15;13.40;99.90
37300;DHT22;23184;51.902;12.836;2024-03-22T12:23:41;13.40;99.90
37300;DHT22;23184;51.902;12.836;2024-03-22T12:26:06;13.40;99.90
37300;DHT22;23184;51.902;12.836;2024-03-22T12:28:32;13.50;99.90
37300;DHT22;23184;51.902;12.836;2024-03-22T12:30:57;13.40;99.90
37300;DHT22;23184;51.902;12.836;2024-03-22T12:33:23;13.40;99.90
37300;DHT22;23184;51.902;12.836;2024-03-22T12:35:48;13.50;99.90
37300;DHT22;23184;51.902;12.836;2024-03-22T12:38:14;13.50;99.90
37300;DHT22;23184;51.902;12.836;2024-03-22T12:40:40;13.50;99.90
37300;DHT22;23184;51.902;12.836;2024-03-22T12:43:06;13.40;99.90
37300;DHT22;23184;51.902;12.836;2024-03-22T12:45:32;13.40;99.90
37300;DHT22;23184;51.902;12.836;2024-03-22T12:47:58;13.40;99.90
37300;DHT22;23184;51.902;12.836;2024-03-22T12:50:24;13.40;99.90
37300;DHT22;23184;51.902;12.836;2024-03-22T12:52:50;13.40;99.90
37300;DHT22;23184;51.902;12.836;2024-03-22T12:55:15;13.40;99.90
37300;DHT22;23184;51.902;12.836;2024-03-22T12:57:41;13.50;99.90
37300;DHT22;23184;51.902;12.836;2024-03-22T13:00:07;13.50;99.90
37300;DHT22;23184;51.902;12.836;2024-03-22T13:02:39;13.60;99.90
37300;DHT22;23184;51.902;12.836;2024-03-22T13:05:05;13.60;99.90
37300;DHT22;23184;51.902;12.836;2024-03-22T13:07:30;13.60;99.90
37300;DHT22;23184;51.902;12.836;2024-03-22T13:09:56;13.60;99.90
37300;DHT22;23184;51.902;12.836;2024-03-22T13:12:21;13.50;99.90
37300;DHT22;23184;51.902;12.836;2024-03-22T13:14:47;13.50;99.90
37300;DHT22;23184;51.902;12.836;2024-03-22T13:17:13;13.50;99.90
37300;DHT22;23184;51.902;12.836;2024-03-22T13:19:38;13.50;99.90
37300;DHT22;23184;51.902;12.836;2024-03-22T13:22:04;13.40;99.90
37300;DHT22;23184;51.902;12.836;2024-03-22T13:24:30;13.30;99.90
37300;DHT22;23184;51.902;12.836;2024-03-22T13:26:55;13.30;99.90
37300;DHT22;23184;51.902;12.836;2024-03-22T13:29:21;13.30;99.90
37300;DHT22;23184;51.902;12.836;2024-03-22T13:31:46;13.20;99.90
37300;DHT22;23184;51.902;12.836;2024-03-22T13:34:12;13.20;99.90
37300;DHT22;23184;51.902;12.836;2024-03-22T13:36:38;13.20;99.90
37300;DHT22;23184;51.902;12.836;2024-03-22T13:39:04;13.20;99.90
37300;DHT22;23184;51.902;12.836;2024-03-22T13:41:29;13.30;99.90
37300;DHT22;23184;51.902;12.836;2024-03-22T13:43:55;13.20;99.90
37300;DHT22;23184;51.902;12.836;2024-03-22T13:46:21;13.20;99.90
37300;DHT22;23184;51.902;12.836;2024-03-22T13:48:46;13.20;99.90
37300;DHT22;23184;51.902;12.836;2024-03-22T13:51:13;13.20;99.90
37300;DHT22;23184;51.902;12.836;2024-03-22T13:53:38;13.20;99.90
37300;DHT22;23184;51.902;12.836;2024-03-22T13:56:04;13.10;99.90
37300;DHT22;23184;51.902;12.836;2024-03-22T13:58:29;13.10;99.90
37300;DHT22;23184;51.902;12.836;2024-03-22T14:00:55;13.10;99.90
37300;DHT22;23184;51.902;12.836;2024-03-22T14:03:21;13.10;99.90
37300;DHT22;23184;51.902;12.836;2024-03-22T14:05:46;13.00;99.90
37300;DHT22;23184;51.902;12.836;2024-03-22T14:08:12;12.90;99.90
37300;DHT22;23184;51.902;12.836;2024-03-22T14:10:37;12.90;99.90
37300;DHT22;23184;51.902;12.836;2024-03-22T14:13:03;13.00;99.90
37300;DHT22;23184;51.902;12.836;2024-03-22T14:15:29;12.90;99.90
37300;DHT22;23184;51.902;12.836;2024-03-22T14:17:57;12.90;99.90
37300;DHT22;23184;51.902;12.836;2024-03-22T14:20:23;12.90;99.90
37300;DHT22;23184;51.902;12.836;2024-03-22T14:22:50;13.00;99.90
37300;DHT22;23184;51.902;12.836;2024-03-22T14:25:16;13.00;99.90
37300;DHT22;23184;51.902;12.836;2024-03-22T14:27:42;13.00;99.90
37300;DHT22;23184;51.902;12.836;2024-03-22T14:30:11;13.00;99.90
37300;DHT22;23184;51.902;12.836;2024-03-22T14:32:38;12.90;99.90
37300;DHT22;23184;51.902;12.836;2024-03-22T14:35:04;12.80;99.90
37300;DHT22;23184;51.902;12.836;2024-03-22T14:37:31;12.70;99.90
37300;DHT22;23184;51.902;12.836;2024-03-22T14:39:56;12.60;99.90
37300;DHT22;23184;51.902;12.836;2024-03-22T14:42:22;12.50;99.90
37300;DHT22;23184;51.902;12.836;2024-03-22T14:44:47;12.30;99.90
37300;DHT22;23184;51.902;12.836;2024-03-22T14:47:13;12.30;99.90
37300;DHT22;23184;51.902;12.836;2024-03-22T14:49:38;12.20;99.90
37300;DHT22;23184;51.902;12.836;2024-03-22T14:52:06;12.10;99.90
37300;DHT22;23184;51.902;12.836;2024-03-22T14:54:31;12.10;99.90
37300;DHT22;23184;51.902;12.836;2024-03-22T14:56:57;12.10;99.90
37300;DHT22;23184;51.902;12.836;2024-03-22T14:59:22;12.00;99.90
37300;DHT22;23184;51.902;12.836;2024-03-22T15:01:48;11.90;99.90
37300;DHT22;23184;51.902;12.836;2024-03-22T15:04:13;11.90;99.90
37300;DHT22;23184;51.902;12.836;2024-03-22T15:06:39;11.90;99.90
37300;DHT22;23184;51.902;12.836;2024-03-22T15:09:04;11.90;99.90
37300;DHT22;23184;51.902;12.836;2024-03-22T15:11:34;11.90;99.90
37300;DHT22;23184;51.902;12.836;2024-03-22T15:14:00;11.90;99.90
37300;DHT22;23184;51.902;12.836;2024-03-22T15:16:26;11.90;99.90
37300;DHT22;23184;51.902;12.836;2024-03-22T15:18:51;11.90;99.90
37300;DHT22;23184;51.902;12.836;2024-03-22T15:21:17;11.90;99.90